Time;durP1;ratioP1;P1;durP2;ratioP2;P2;SDS_P1;SDS_P2;PMS_P1;PMS_P2;Temp;Humidity;BMP_temperature;BMP_pressure;BME280_temperature;BME280_humidity;BME280_pressure;Samples;Min_cycle;Max_cycle;Signal;HPM_P1;HPM_P2
2023/09/25 00:00:00;;;;;;;4.72;2.40;;;;;;;13.67;100.00;102052.16;5023197;28;20065;-73
2023/09/25 00:02:26;;;;;;;4.28;2.28;;;;;;;13.58;100.00;102056.00;5008511;28;20045;-73
2023/09/25 00:04:52;;;;;;;4.68;2.50;;;;;;;13.63;100.00;102052.88;5029872;28;20055;-73
2023/09/25 00:07:18;;;;;;;2.50;1.80;;;;;;;13.52;100.00;102051.84;5026021;28;20030;-73
2023/09/25 00:09:44;;;;;;;4.03;1.92;;;;;;;13.68;100.00;102056.59;5037040;28;20145;-72
2023/09/25 00:12:09;;;;;;;7.60;3.20;;;;;;;13.57;100.00;102059.19;5029698;28;20466;-73
2023/09/25 00:14:35;;;;;;;4.15;2.38;;;;;;;13.45;100.00;102054.53;5027116;28;20432;-72
2023/09/25 00:17:00;;;;;;;3.17;2.17;;;;;;;13.59;100.00;102063.25;5026184;28;20083;-73
2023/09/25 00:19:25;;;;;;;4.97;2.42;;;;;;;13.50;100.00;102054.22;5028792;28;20082;-77
2023/09/25 00:21:51;;;;;;;3.85;2.75;;;;;;;13.55;100.00;102062.34;5008960;28;20493;-77
2023/09/25 00:24:16;;;;;;;3.17;2.17;;;;;;;13.54;100.00;102063.56;5032963;28;20129;-77
2023/09/25 00:26:42;;;;;;;7.28;2.83;;;;;;;13.50;100.00;102059.84;5025600;28;20030;-78
2023/09/25 00:29:09;;;;;;;3.85;2.40;;;;;;;13.59;100.00;102062.44;5028819;28;20040;-77
2023/09/25 00:31:34;;;;;;;3.90;2.30;;;;;;;13.56;100.00;102058.38;5026479;28;20037;-77
2023/09/25 00:33:59;;;;;;;6.13;2.22;;;;;;;13.60;100.00;102058.47;5021904;28;20080;-77
2023/09/25 00:36:25;;;;;;;5.63;2.55;;;;;;;13.38;100.00;102051.53;5029266;28;20466;-77
2023/09/25 00:38:50;;;;;;;6.00;3.00;;;;;;;13.41;100.00;102048.00;5014671;28;20024;-77
2023/09/25 00:41:16;;;;;;;5.07;2.92;;;;;;;13.35;100.00;102043.88;5023761;28;20369;-77
2023/09/25 00:43:41;;;;;;;4.68;2.38;;;;;;;13.38;100.00;102057.16;5026676;28;20056;-77
2023/09/25 00:46:06;;;;;;;3.88;2.55;;;;;;;13.34;100.00;102050.66;5038171;28;20071;-77
2023/09/25 00:48:33;;;;;;;4.50;2.35;;;;;;;13.45;100.00;102056.50;5031439;28;20037;-77
2023/09/25 00:51:04;;;;;;;7.55;2.88;;;;;;;13.14;100.00;102064.66;5034099;28;20387;-77
2023/09/25 00:53:31;;;;;;;3.80;2.42;;;;;;;13.40;100.00;102060.44;5036968;28;20025;-77
2023/09/25 00:55:57;;;;;;;5.30;3.40;;;;;;;13.46;100.00;102058.97;5034225;28;20040;-77
2023/09/25 00:58:23;;;;;;;4.93;2.38;;;;;;;13.43;100.00;102056.91;5031279;28;20037;-77
2023/09/25 01:00:49;;;;;;;3.75;2.65;;;;;;;13.50;100.00;102059.03;5034029;28;20489;-77
2023/09/25 01:03:14;;;;;;;3.17;2.55;;;;;;;13.35;100.00;102064.34;5037628;28;20063;-77
2023/09/25 01:05:40;;;;;;;6.25;3.13;;;;;;;13.34;100.00;102059.09;5048152;28;20025;-77
2023/09/25 01:08:06;;;;;;;5.53;2.80;;;;;;;13.15;100.00;102048.59;5048065;28;20063;-75
2023/09/25 01:10:32;;;;;;;3.45;2.72;;;;;;;13.16;100.00;102044.63;5028363;28;20040;-75
2023/09/25 01:13:00;;;;;;;4.85;3.08;;;;;;;13.23;100.00;102048.38;5048192;28;20039;-75
2023/09/25 01:15:26;;;;;;;3.95;2.97;;;;;;;13.26;100.00;102054.47;5046541;28;20033;-75
2023/09/25 01:17:52;;;;;;;3.63;2.28;;;;;;;13.31;100.00;102052.22;5050498;28;20063;-75
2023/09/25 01:20:18;;;;;;;6.95;2.30;;;;;;;13.30;100.00;102049.75;5027763;28;20028;-75
2023/09/25 01:22:51;;;;;;;3.58;2.67;;;;;;;13.10;100.00;102041.28;5047437;28;20028;-75
2023/09/25 01:25:17;;;;;;;6.72;3.05;;;;;;;13.26;100.00;102051.66;5048864;28;20127;-75
2023/09/25 01:27:44;;;;;;;4.55;2.80;;;;;;;13.31;100.00;102049.41;5048027;28;20037;-76
2023/09/25 01:30:13;;;;;;;5.68;2.90;;;;;;;13.26;100.00;102048.84;5048439;28;20040;-76
2023/09/25 01:32:42;;;;;;;4.65;3.10;;;;;;;13.28;100.00;102052.09;5042676;28;20036;-76
2023/09/25 01:35:14;;;;;;;3.72;2.60;;;;;;;13.27;100.00;102045.66;5048617;28;20427;-76
2023/09/25 01:37:43;;;;;;;5.55;3.47;;;;;;;13.08;100.00;102043.63;5048173;28;20044;-77
2023/09/25 01:40:12;;;;;;;5.63;3.03;;;;;;;13.00;100.00;102041.84;5045268;28;20032;-77
2023/09/25 01:42:37;;;;;;;5.82;3.22;;;;;;;13.16;100.00;102039.00;5045258;28;20045;-77
2023/09/25 01:45:03;;;;;;;4.97;3.15;;;;;;;13.07;100.00;102036.41;5049254;28;20064;-77
2023/09/25 01:47:29;;;;;;;5.95;2.50;;;;;;;13.10;100.00;102030.03;5049544;28;20032;-77
2023/09/25 01:49:54;;;;;;;5.18;3.10;;;;;;;13.01;100.00;102037.88;5038930;28;20033;-77
2023/09/25 01:52:19;;;;;;;5.25;3.55;;;;;;;12.93;100.00;102038.88;5049280;28;20028;-78
2023/09/25 01:54:45;;;;;;;5.35;2.63;;;;;;;12.69;100.00;102035.13;5044034;28;20033;-75
2023/09/25 01:57:10;;;;;;;4.10;3.00;;;;;;;12.88;100.00;102030.72;5049656;28;20465;-76
2023/09/25 01:59:36;;;;;;;4.28;3.05;;;;;;;12.90;100.00;102036.78;5051328;28;20028;-76
2023/09/25 02:02:01;;;;;;;4.88;3.00;;;;;;;12.87;100.00;102023.47;5047187;28;20037;-76
2023/09/25 02:04:27;;;;;;;7.03;3.80;;;;;;;12.96;100.00;102032.50;5046358;28;20127;-75
2023/09/25 02:06:52;;;;;;;4.25;3.17;;;;;;;12.89;100.00;102030.34;5032110;28;20543;-76
2023/09/25 02:09:18;;;;;;;7.10;3.20;;;;;;;12.89;100.00;102030.34;5046008;28;20119;-75
2023/09/25 02:11:43;;;;;;;3.60;2.55;;;;;;;12.93;100.00;102028.44;5050254;28;20037;-76
2023/09/25 02:14:08;;;;;;;4.13;3.42;;;;;;;12.78;100.00;102018.88;5049329;28;20021;-76
2023/09/25 02:16:34;;;;;;;5.38;3.30;;;;;;;12.71;100.00;102013.09;5051076;28;20035;-76
2023/09/25 02:18:59;;;;;;;5.10;3.17;;;;;;;12.75;100.00;102008.34;5050648;28;20032;-76
2023/09/25 02:21:25;;;;;;;4.93;2.92;;;;;;;12.91;100.00;102005.50;5052291;28;20036;-76
2023/09/25 02:23:50;;;;;;;7.72;3.97;;;;;;;12.76;100.00;102009.19;5038826;28;20029;-76
2023/09/25 02:26:16;;;;;;;4.05;3.22;;;;;;;12.71;100.00;102006.63;5047567;28;20028;-75
2023/09/25 02:28:41;;;;;;;3.65;3.22;;;;;;;12.86;100.00;102007.78;5055373;28;20065;-75
2023/09/25 02:31:07;;;;;;;5.30;3.33;;;;;;;12.69;100.00;102009.00;5043231;28;20025;-75
2023/09/25 02:33:33;;;;;;;5.38;3.33;;;;;;;12.64;100.00;102007.28;5045931;28;20017;-76
2023/09/25 02:36:05;;;;;;;3.10;2.80;;;;;;;12.88;100.00;102002.59;5025948;28;20037;-76
2023/09/25 02:38:30;;;;;;;7.07;3.80;;;;;;;12.87;100.00;101999.00;5045947;28;20043;-77
2023/09/25 02:40:56;;;;;;;11.13;3.63;;;;;;;12.81;100.00;101998.44;5044264;28;20505;-77
2023/09/25 02:43:21;;;;;;;5.63;3.33;;;;;;;12.78;100.00;102006.81;5046370;28;20560;-77
2023/09/25 02:45:46;;;;;;;6.40;3.17;;;;;;;12.77;100.00;102005.97;5045946;28;20460;-77
2023/09/25 02:48:12;;;;;;;6.63;3.15;;;;;;;12.77;100.00;102008.00;5042929;28;20025;-77
2023/09/25 02:50:37;;;;;;;6.35;3.40;;;;;;;12.86;100.00;101996.53;5045490;28;20516;-77
2023/09/25 02:53:03;;;;;;;4.05;3.00;;;;;;;12.59;100.00;102001.97;5044479;28;20448;-77
2023/09/25 02:55:28;;;;;;;5.00;3.25;;;;;;;12.78;100.00;102009.63;5049455;28;20028;-77
2023/09/25 02:57:53;;;;;;;7.05;3.75;;;;;;;12.68;100.00;102004.56;5046480;28;20044;-76
2023/09/25 03:00:19;;;;;;;6.00;3.42;;;;;;;12.56;100.00;102019.53;5045094;28;20027;-76
2023/09/25 03:02:44;;;;;;;7.22;3.67;;;;;;;12.65;100.00;102014.53;5044495;28;20036;-76
2023/09/25 03:05:10;;;;;;;8.43;4.07;;;;;;;12.71;100.00;102010.28;5042565;28;20032;-77
2023/09/25 03:07:35;;;;;;;4.57;3.10;;;;;;;12.75;100.00;102002.72;5042710;28;20416;-77
2023/09/25 03:10:00;;;;;;;3.85;2.83;;;;;;;12.78;100.00;102004.81;5044456;28;20120;-77
2023/09/25 03:12:26;;;;;;;5.57;3.20;;;;;;;12.74;100.00;101994.69;5043146;28;20116;-77
2023/09/25 03:14:51;;;;;;;5.32;3.03;;;;;;;12.77;100.00;101991.94;5025233;28;20036;-77
2023/09/25 03:17:17;;;;;;;3.88;3.00;;;;;;;12.72;100.00;101992.22;5027908;28;20596;-78
2023/09/25 03:19:42;;;;;;;6.43;3.10;;;;;;;12.66;100.00;101996.50;5039993;28;20365;-77
2023/09/25 03:22:07;;;;;;;7.70;3.53;;;;;;;12.54;100.00;101986.22;5047750;28;20496;-76
2023/09/25 03:24:35;;;;;;;3.22;2.92;;;;;;;12.60;100.00;101983.91;5041620;28;20075;-76
2023/09/25 03:27:00;;;;;;;4.80;3.50;;;;;;;12.76;100.00;101998.75;5028054;28;20444;-77
2023/09/25 03:29:25;;;;;;;9.45;3.88;;;;;;;12.62;100.00;101989.97;5052556;28;20025;-79
2023/09/25 03:31:51;;;;;;;5.05;3.55;;;;;;;12.47;100.00;101996.44;5049556;28;21604;-77
2023/09/25 03:34:16;;;;;;;5.75;3.03;;;;;;;12.62;100.00;101995.59;5043430;28;20491;-77
2023/09/25 03:36:41;;;;;;;5.22;2.80;;;;;;;12.74;100.00;101987.06;5040899;28;20039;-77
2023/09/25 03:39:07;;;;;;;5.57;3.22;;;;;;;12.62;100.00;101987.16;5048863;28;20033;-75
2023/09/25 03:41:32;;;;;;;4.88;3.30;;;;;;;12.78;100.00;101984.34;5045788;28;20478;-75
2023/09/25 03:43:57;;;;;;;3.90;3.20;;;;;;;12.70;100.00;101991.78;5045348;28;20024;-75
2023/09/25 03:46:23;;;;;;;6.68;3.60;;;;;;;12.68;100.00;101985.72;5044391;28;20101;-75
2023/09/25 03:48:49;;;;;;;6.32;3.13;;;;;;;12.37;100.00;101989.38;5042435;28;20499;-75
2023/09/25 03:51:14;;;;;;;6.47;3.13;;;;;;;12.50;100.00;101990.09;5046863;28;20017;-75
2023/09/25 03:53:40;;;;;;;4.13;2.95;;;;;;;12.61;100.00;101985.56;5046386;28;20866;-75
2023/09/25 03:56:05;;;;;;;4.45;3.15;;;;;;;12.45;100.00;101981.94;5043600;28;20029;-74
2023/09/25 03:58:30;;;;;;;7.82;3.17;;;;;;;12.60;100.00;101989.53;5047314;28;20033;-77
2023/09/25 04:00:57;;;;;;;4.82;3.65;;;;;;;12.49;100.00;101988.47;5047674;28;20049;-77
2023/09/25 04:03:22;;;;;;;4.20;2.78;;;;;;;12.46;100.00;101992.00;5048829;28;20041;-77
2023/09/25 04:05:48;;;;;;;3.42;3.13;;;;;;;12.55;100.00;102006.66;5044289;28;20033;-77
2023/09/25 04:08:13;;;;;;;5.82;2.85;;;;;;;12.50;100.00;101996.53;5046698;28;20033;-78
2023/09/25 04:10:39;;;;;;;4.00;2.88;;;;;;;12.57;100.00;102002.31;5047964;28;20029;-77
2023/09/25 04:13:04;;;;;;;4.30;3.53;;;;;;;12.45;100.00;102002.41;5048578;28;20078;-76
2023/09/25 04:15:31;;;;;;;5.32;2.42;;;;;;;12.49;100.00;101994.91;5047534;28;20039;-77
2023/09/25 04:17:57;;;;;;;7.72;3.20;;;;;;;12.43;100.00;102001.16;5047430;28;20115;-77
2023/09/25 04:20:25;;;;;;;7.95;3.53;;;;;;;12.54;100.00;102003.06;5048490;28;20532;-77
2023/09/25 04:22:56;;;;;;;5.68;3.50;;;;;;;12.54;100.00;101991.00;5047105;28;20029;-77
2023/09/25 04:25:22;;;;;;;7.43;3.38;;;;;;;12.48;100.00;101998.91;5043935;28;20556;-77
2023/09/25 04:27:54;;;;;;;4.90;2.72;;;;;;;12.47;100.00;101985.22;5046148;28;20122;-77
2023/09/25 04:30:21;;;;;;;6.15;3.58;;;;;;;12.52;100.00;101993.34;5040263;28;20084;-77
2023/09/25 04:32:49;;;;;;;5.38;2.90;;;;;;;12.44;100.00;101989.56;5044289;28;20167;-77
2023/09/25 04:35:15;;;;;;;5.72;3.17;;;;;;;12.41;100.00;101996.69;5049824;28;20025;-77
2023/09/25 04:37:42;;;;;;;3.72;3.03;;;;;;;12.46;100.00;101992.00;5047718;28;20104;-77
2023/09/25 04:40:46;;;;;;;3.85;2.95;;;;;;;12.36;100.00;101987.75;5045557;28;20615;-77
2023/09/25 04:43:00;;;;;;;;;;;;;;;12.46;100.00;101992.00;5040910;28;20048;-77
2023/09/25 04:45:26;;;;;;;4.28;2.67;;;;;;;12.45;100.00;101996.78;5044494;28;20043;-77
2023/09/25 04:47:52;;;;;;;5.53;3.33;;;;;;;12.52;100.00;101996.16;5039255;28;20028;-73
2023/09/25 04:50:19;;;;;;;5.40;2.92;;;;;;;12.51;100.00;101997.34;5039684;28;20103;-73
2023/09/25 04:52:45;;;;;;;4.00;2.60;;;;;;;12.45;100.00;102005.22;5045293;28;20017;-72
2023/09/25 04:55:11;;;;;;;5.03;2.53;;;;;;;12.55;100.00;101996.25;5042291;28;20680;-73
2023/09/25 04:57:54;;;;;;;3.70;3.03;;;;;;;12.44;100.00;101998.00;5044367;28;20029;-72
2023/09/25 05:00:27;;;;;;;3.88;3.03;;;;;;;12.44;100.00;102008.38;5043887;28;20027;-74
2023/09/25 05:02:56;;;;;;;3.97;2.92;;;;;;;12.52;100.00;102001.78;5042118;28;20060;-76
2023/09/25 05:05:22;;;;;;;5.72;3.40;;;;;;;12.45;100.00;102005.22;5038221;28;20029;-73
2023/09/25 05:07:50;;;;;;;2.92;2.28;;;;;;;12.59;100.00;102002.75;5039870;28;20036;-76
2023/09/25 05:10:17;;;;;;;3.38;2.60;;;;;;;12.57;100.00;102012.75;5039636;28;20507;-76
2023/09/25 05:12:43;;;;;;;4.22;2.58;;;;;;;12.52;100.00;102015.81;5034678;28;20154;-77
2023/09/25 05:15:10;;;;;;;3.22;2.60;;;;;;;12.61;100.00;102022.06;5031808;28;20033;-77
2023/09/25 05:17:37;;;;;;;3.42;2.65;;;;;;;12.60;100.00;102017.63;5034018;28;20500;-77
2023/09/25 05:20:08;;;;;;;4.13;2.88;;;;;;;12.59;100.00;102016.81;5037784;28;20032;-77
2023/09/25 05:22:38;;;;;;;3.72;2.85;;;;;;;12.65;100.00;102027.75;5043692;28;20187;-77
2023/09/25 05:25:06;;;;;;;3.85;2.78;;;;;;;12.54;100.00;102025.53;5041233;28;20035;-77
2023/09/25 05:27:31;;;;;;;3.80;2.60;;;;;;;12.53;100.00;102020.25;5041262;28;20033;-76
2023/09/25 05:29:57;;;;;;;4.80;2.90;;;;;;;12.53;100.00;102028.69;5039399;28;20495;-74
2023/09/25 05:32:23;;;;;;;3.55;2.80;;;;;;;12.46;100.00;102018.09;5043247;28;20458;-74
2023/09/25 05:34:48;;;;;;;4.28;2.60;;;;;;;12.41;100.00;102023.97;5043010;28;21719;-74
2023/09/25 05:37:13;;;;;;;4.93;2.70;;;;;;;12.36;100.00;102024.25;5036581;28;20372;-74
2023/09/25 05:39:39;;;;;;;4.97;3.08;;;;;;;12.51;100.00;102025.44;5043570;28;20025;-74
2023/09/25 05:42:04;;;;;;;4.57;2.47;;;;;;;12.41;100.00;102013.53;5045003;28;20033;-75
2023/09/25 05:44:29;;;;;;;3.22;2.50;;;;;;;12.49;100.00;102019.34;5044851;28;20108;-75
2023/09/25 05:46:55;;;;;;;4.57;2.25;;;;;;;12.57;100.00;102024.78;5045599;28;20029;-75
2023/09/25 05:49:20;;;;;;;3.65;1.95;;;;;;;12.51;100.00;102025.44;5041420;28;20114;-75
2023/09/25 05:51:46;;;;;;;4.13;2.08;;;;;;;12.70;100.00;102025.50;5043688;28;20292;-75
2023/09/25 05:54:11;;;;;;;4.90;2.53;;;;;;;12.56;100.00;102022.34;5042274;28;20029;-74
2023/09/25 05:56:38;;;;;;;4.20;2.80;;;;;;;12.34;100.00;102021.81;5044283;28;20032;-74
2023/09/25 05:59:03;;;;;;;7.35;2.50;;;;;;;12.38;100.00;102031.13;5042368;28;20499;-72
2023/09/25 06:01:28;;;;;;;3.83;2.13;;;;;;;12.32;100.00;102026.97;5045114;28;20024;-73
2023/09/25 06:03:54;;;;;;;3.75;2.92;;;;;;;12.36;100.00;102029.88;5042544;28;20045;-72
2023/09/25 06:06:19;;;;;;;3.05;2.10;;;;;;;12.36;100.00;102033.50;5047735;28;20067;-73
2023/09/25 06:08:45;;;;;;;5.65;2.53;;;;;;;12.36;100.00;102027.06;5042868;28;20214;-72
2023/09/25 06:11:10;;;;;;;4.55;2.40;;;;;;;12.35;100.00;102028.22;5042727;28;20051;-72
2023/09/25 06:13:36;;;;;;;3.88;2.42;;;;;;;12.34;100.00;102035.84;5042022;28;20083;-72
2023/09/25 06:16:01;;;;;;;3.00;1.80;;;;;;;12.50;100.00;102035.00;5025622;28;20029;-74
2023/09/25 06:18:29;;;;;;;6.07;2.40;;;;;;;12.52;100.00;102029.84;5048582;28;20032;-71
2023/09/25 06:20:55;;;;;;;4.35;2.65;;;;;;;12.50;100.00;102037.81;5040812;28;20358;-72
2023/09/25 06:23:20;;;;;;;2.45;2.17;;;;;;;12.50;100.00;102030.25;5033613;28;20033;-72
2023/09/25 06:25:45;;;;;;;4.63;2.13;;;;;;;12.47;100.00;102032.94;5042395;28;20036;-74
2023/09/25 06:28:14;;;;;;;4.70;2.55;;;;;;;12.41;100.00;102038.81;5050891;28;20116;-71
2023/09/25 06:30:41;;;;;;;6.68;3.03;;;;;;;12.51;100.00;102029.03;5041736;28;20025;-71
2023/09/25 06:33:07;;;;;;;7.03;2.83;;;;;;;12.52;100.00;102035.47;5044892;28;20039;-71
2023/09/25 06:35:33;;;;;;;6.30;2.60;;;;;;;12.54;100.00;102041.53;5053142;28;20116;-71
2023/09/25 06:37:58;;;;;;;4.50;3.38;;;;;;;12.56;100.00;102034.38;5045340;28;20033;-71
2023/09/25 06:40:24;;;;;;;3.58;2.22;;;;;;;12.63;100.00;102056.22;5027551;28;20033;-71
2023/09/25 06:42:49;;;;;;;3.97;2.08;;;;;;;12.57;100.00;102049.25;5047691;28;20104;-71
2023/09/25 06:45:15;;;;;;;6.32;2.53;;;;;;;12.62;100.00;102048.97;5047885;28;20039;-72
2023/09/25 06:47:41;;;;;;;5.22;2.28;;;;;;;12.69;100.00;102049.16;5046118;28;21324;-71
2023/09/25 06:50:06;;;;;;;4.28;2.22;;;;;;;12.64;100.00;102049.41;5048913;28;20094;-71
2023/09/25 06:52:31;;;;;;;6.95;3.08;;;;;;;12.71;100.00;102046.81;5046536;28;20029;-71
2023/09/25 06:54:57;;;;;;;3.88;2.17;;;;;;;12.76;100.00;102046.50;5046379;28;20120;-72
2023/09/25 06:57:25;;;;;;;4.45;2.30;;;;;;;12.78;100.00;102041.34;5043222;28;20507;-71
2023/09/25 06:59:50;;;;;;;2.95;2.20;;;;;;;12.78;100.00;102044.16;5049329;28;20140;-71
2023/09/25 07:02:16;;;;;;;5.47;2.80;;;;;;;12.80;100.00;102049.41;5040102;28;20475;-73
2023/09/25 07:04:41;;;;;;;4.68;2.42;;;;;;;12.85;100.00;102048.31;5039561;28;20040;-71
2023/09/25 07:07:08;;;;;;;5.03;3.08;;;;;;;12.86;100.00;102047.97;5049329;28;20104;-71
2023/09/25 07:09:33;;;;;;;5.30;2.40;;;;;;;12.88;100.00;102031.53;5033452;28;20554;-75
2023/09/25 07:11:59;;;;;;;4.03;2.60;;;;;;;12.92;100.00;102034.41;5043655;28;20033;-75
2023/09/25 07:14:25;;;;;;;3.40;2.38;;;;;;;12.92;100.00;102040.03;5046573;28;20017;-75
2023/09/25 07:16:51;;;;;;;3.20;2.53;;;;;;;12.99;100.00;102043.03;5045638;28;20391;-75
2023/09/25 07:19:16;;;;;;;2.28;2.08;;;;;;;13.02;100.00;102045.09;5052286;28;20036;-74
2023/09/25 07:21:42;;;;;;;4.78;2.40;;;;;;;13.06;100.00;102033.94;5045948;28;20036;-75
2023/09/25 07:24:07;;;;;;;3.72;2.67;;;;;;;13.02;100.00;102033.84;5047215;28;20060;-75
2023/09/25 07:26:33;;;;;;;3.78;2.55;;;;;;;13.14;100.00;102047.78;5049588;28;20106;-75
2023/09/25 07:28:58;;;;;;;6.18;2.33;;;;;;;13.17;100.00;102046.22;5049136;28;20044;-75
2023/09/25 07:31:24;;;;;;;4.93;2.25;;;;;;;13.16;100.00;102042.63;5048224;28;20106;-75
2023/09/25 07:33:50;;;;;;;3.70;1.92;;;;;;;13.28;100.00;102046.47;5043466;28;20060;-75
2023/09/25 07:36:20;;;;;;;3.53;2.22;;;;;;;13.31;100.00;102052.22;5049501;28;20039;-75
2023/09/25 07:38:49;;;;;;;4.50;2.20;;;;;;;13.37;100.00;102049.94;5046924;28;20040;-75
2023/09/25 07:41:14;;;;;;;4.78;2.53;;;;;;;13.42;100.00;102046.81;5044520;28;20489;-75
2023/09/25 07:43:40;;;;;;;5.28;2.40;;;;;;;13.44;100.00;102044.44;5041840;28;20029;-75
2023/09/25 07:46:06;;;;;;;5.18;2.83;;;;;;;13.56;100.00;102055.56;5042373;28;20021;-75
2023/09/25 07:48:32;;;;;;;5.18;2.50;;;;;;;13.58;100.00;102044.75;5026148;28;20090;-75
2023/09/25 07:50:58;;;;;;;3.28;2.15;;;;;;;13.63;100.00;102052.88;5042169;28;20029;-75
2023/09/25 07:53:24;;;;;;;3.00;1.92;;;;;;;13.65;100.00;102046.09;5045936;28;20496;-75
2023/09/25 07:55:51;;;;;;;5.20;2.67;;;;;;;13.71;100.00;102051.03;5047367;28;20024;-75
2023/09/25 07:58:16;;;;;;;5.38;2.38;;;;;;;13.77;100.00;102057.19;5042731;28;20028;-74
2023/09/25 08:00:44;;;;;;;6.00;2.40;;;;;;;13.83;100.00;102050.88;5039989;28;20035;-76
2023/09/25 08:03:14;;;;;;;5.38;2.88;;;;;;;13.83;100.00;102053.69;5046199;28;20045;-76
2023/09/25 08:05:40;;;;;;;2.95;2.05;;;;;;;13.83;100.00;102055.72;5044425;28;20028;-76
2023/09/25 08:08:05;;;;;;;4.07;2.67;;;;;;;13.84;100.00;102057.31;5042574;28;20041;-77
2023/09/25 08:10:33;;;;;;;4.47;1.90;;;;;;;13.89;100.00;102057.00;5045388;28;20062;-76
2023/09/25 08:12:59;;;;;;;3.35;2.13;;;;;;;14.00;100.00;102049.59;5043628;28;20070;-76
2023/09/25 08:15:24;;;;;;;4.15;2.40;;;;;;;14.10;100.00;102056.59;5045897;28;20064;-76
2023/09/25 08:17:50;;;;;;;4.03;2.13;;;;;;;14.21;100.00;102065.28;5048785;28;20041;-72
2023/09/25 08:20:20;;;;;;;2.70;2.33;;;;;;;14.35;100.00;102062.69;5044371;28;20120;-72
2023/09/25 08:22:47;;;;;;;3.03;2.15;;;;;;;14.30;100.00;102057.38;5047590;28;20041;-72
2023/09/25 08:25:13;;;;;;;9.85;3.22;;;;;;;14.39;100.00;102060.75;5043909;28;20024;-73
2023/09/25 08:27:39;;;;;;;4.78;2.30;;;;;;;14.52;100.00;102057.75;5045495;28;20036;-71
2023/09/25 08:30:06;;;;;;;3.47;1.83;;;;;;;14.57;100.00;102054.66;5044616;28;20037;-71
2023/09/25 08:32:32;;;;;;;3.50;2.00;;;;;;;14.69;100.00;102057.25;5045874;28;20029;-72
2023/09/25 08:34:58;;;;;;;4.85;2.15;;;;;;;14.69;100.00;102062.91;5045509;28;20040;-72
2023/09/25 08:37:24;;;;;;;7.30;2.35;;;;;;;14.78;100.00;102055.00;5045099;28;20430;-76
2023/09/25 08:39:51;;;;;;;4.85;2.17;;;;;;;14.94;100.00;102051.22;5046153;28;20025;-76
2023/09/25 08:42:19;;;;;;;5.13;2.42;;;;;;;14.98;97.92;102060.53;5044050;28;20048;-76
2023/09/25 08:44:45;;;;;;;3.28;2.00;;;;;;;14.98;97.82;102052.06;5043823;28;20021;-76
2023/09/25 08:47:12;;;;;;;5.50;2.40;;;;;;;15.14;97.52;102044.25;5044498;28;20036;-76
2023/09/25 08:49:40;;;;;;;1.98;1.55;;;;;;;15.22;96.10;102051.63;5044316;28;20025;-75
2023/09/25 08:52:05;;;;;;;3.45;2.17;;;;;;;15.14;98.55;102051.91;5048246;28;20475;-76
2023/09/25 08:54:30;;;;;;;4.95;2.13;;;;;;;15.29;98.46;102045.28;5045267;28;20120;-76
2023/09/25 08:56:56;;;;;;;3.72;1.90;;;;;;;15.44;97.79;102051.91;5048229;28;20025;-76
2023/09/25 08:59:24;;;;;;;4.28;2.00;;;;;;;15.65;94.89;102051.38;5045422;28;20032;-76
2023/09/25 09:01:51;;;;;;;4.45;1.90;;;;;;;15.80;96.16;102052.38;5050038;28;20033;-76
2023/09/25 09:04:16;;;;;;;6.28;2.13;;;;;;;15.79;96.32;102045.09;5050187;28;20615;-76
2023/09/25 09:06:42;;;;;;;4.50;1.98;;;;;;;15.83;95.15;102052.44;5050648;28;20021;-76
2023/09/25 09:09:09;;;;;;;4.00;2.05;;;;;;;15.86;92.46;102039.56;5054466;28;20102;-75
2023/09/25 09:11:35;;;;;;;3.63;1.95;;;;;;;15.84;93.54;102048.41;5042652;28;20032;-76
2023/09/25 09:14:01;;;;;;;4.15;2.05;;;;;;;15.80;92.75;102047.53;5049395;28;20040;-76
2023/09/25 09:16:27;;;;;;;3.42;2.17;;;;;;;15.95;93.77;102040.06;5028430;28;20032;-77
2023/09/25 09:19:06;;;;;;;3.63;1.60;;;;;;;16.07;93.38;102043.81;5044737;28;20460;-76
2023/09/25 09:21:33;;;;;;;3.72;1.70;;;;;;;16.17;92.32;102043.09;5045221;28;20017;-76
2023/09/25 09:23:59;;;;;;;3.38;2.05;;;;;;;16.19;92.09;102050.00;5042191;28;20025;-75
2023/09/25 09:26:25;;;;;;;3.08;1.80;;;;;;;16.21;93.19;102046.75;5046752;28;20151;-76
2023/09/25 09:28:53;;;;;;;2.40;1.30;;;;;;;16.20;94.22;102040.31;5047982;28;20506;-76
2023/09/25 09:31:19;;;;;;;4.38;1.55;;;;;;;16.27;93.72;102048.03;5047551;28;20033;-76
2023/09/25 09:33:45;;;;;;;3.28;1.58;;;;;;;16.38;93.14;102037.66;5042555;28;22806;-76
2023/09/25 09:36:12;;;;;;;3.03;1.45;;;;;;;16.17;92.54;102038.28;5042965;28;20491;-76
2023/09/25 09:38:41;;;;;;;5.90;1.75;;;;;;;16.34;92.78;102030.31;5046329;28;20488;-76
2023/09/25 09:41:08;;;;;;;6.75;1.40;;;;;;;16.50;93.12;102036.53;5019587;28;20028;-76
2023/09/25 09:43:34;;;;;;;3.50;1.50;;;;;;;16.41;92.81;102039.69;5044953;28;20468;-76
2023/09/25 09:46:00;;;;;;;3.47;1.60;;;;;;;16.31;91.97;102040.41;5044562;28;20111;-76
2023/09/25 09:48:29;;;;;;;6.07;2.40;;;;;;;16.44;92.53;102047.41;5044881;28;20029;-73
2023/09/25 09:51:00;;;;;;;2.30;1.88;;;;;;;16.73;93.14;102047.63;5042691;28;20029;-73
2023/09/25 09:53:28;;;;;;;6.50;1.80;;;;;;;16.50;92.99;102061.16;5043850;28;20035;-74
2023/09/25 09:55:55;;;;;;;4.97;2.25;;;;;;;16.48;92.41;102060.75;5043713;28;20501;-73
2023/09/25 09:58:26;;;;;;;3.25;1.70;;;;;;;16.38;92.52;102071.56;5044959;28;20423;-73
2023/09/25 10:00:54;;;;;;;3.55;1.52;;;;;;;16.49;93.85;102059.56;5042056;28;20057;-73
2023/09/25 10:03:20;;;;;;;2.97;1.60;;;;;;;16.41;94.42;102065.13;5049403;28;20464;-73
2023/09/25 10:05:49;;;;;;;2.42;1.48;;;;;;;16.55;94.68;102057.97;5046385;28;20033;-73
2023/09/25 10:08:16;;;;;;;2.75;1.90;;;;;;;16.67;93.55;102061.34;5044612;28;20079;-73
2023/09/25 10:10:46;;;;;;;4.40;1.90;;;;;;;16.68;93.63;102062.13;5047446;28;20037;-73
2023/09/25 10:13:21;;;;;;;3.17;1.75;;;;;;;16.67;93.57;102060.50;5048402;28;20408;-73
2023/09/25 10:16:00;;;;;;;3.05;2.03;;;;;;;16.98;93.45;102052.69;5049938;28;20489;-73
2023/09/25 10:18:27;;;;;;;5.75;1.48;;;;;;;17.07;92.33;102053.13;5050949;28;20020;-73
2023/09/25 10:21:13;;;;;;;3.92;2.00;;;;;;;17.01;93.42;102058.38;5042717;28;20017;-73
2023/09/25 10:23:42;;;;;;;4.60;1.65;;;;;;;16.96;91.82;102069.25;5045667;28;20029;-73
2023/09/25 10:26:22;;;;;;;4.25;2.38;;;;;;;16.82;93.03;102055.78;5044904;28;20051;-73
2023/09/25 10:29:10;;;;;;;4.63;1.63;;;;;;;16.96;93.28;102049.44;5030631;28;20497;-73
2023/09/25 10:31:35;;;;;;;2.25;1.60;;;;;;;17.32;90.39;102070.25;5046346;28;20039;-73
2023/09/25 10:34:01;;;;;;;4.47;1.75;;;;;;;17.25;90.45;102071.03;5048340;28;20396;-73
2023/09/25 10:36:41;;;;;;;4.18;1.90;;;;;;;17.48;89.81;102069.97;5044318;28;20033;-73
2023/09/25 10:39:08;;;;;;;3.25;1.95;;;;;;;17.58;90.31;102080.53;5039622;28;20037;-76
2023/09/25 10:41:34;;;;;;;2.50;1.65;;;;;;;17.60;88.80;102069.63;5046315;28;20031;-76
2023/09/25 10:44:00;;;;;;;2.40;1.80;;;;;;;17.85;89.49;102066.06;5046817;28;20548;-76
2023/09/25 10:46:25;;;;;;;3.88;2.05;;;;;;;17.96;88.74;102071.78;5041428;28;20040;-76
2023/09/25 10:48:50;;;;;;;3.10;1.80;;;;;;;17.64;89.66;102078.09;5039572;28;20037;-76
2023/09/25 10:51:16;;;;;;;6.38;1.65;;;;;;;17.49;92.48;102071.56;5049416;28;20036;-76
2023/09/25 10:53:43;;;;;;;3.30;1.60;;;;;;;17.85;89.11;102072.53;5022649;28;20067;-77
2023/09/25 10:56:11;;;;;;;4.10;2.13;;;;;;;18.16;87.77;102069.41;5045128;28;20033;-74
2023/09/25 10:58:37;;;;;;;2.97;1.90;;;;;;;18.24;87.35;102059.72;5048410;28;20110;-72
2023/09/25 11:01:03;;;;;;;2.90;1.80;;;;;;;18.25;86.75;102064.94;5044897;28;20028;-72
2023/09/25 11:03:29;;;;;;;5.38;1.83;;;;;;;18.36;87.99;102070.66;5044939;28;20147;-71
2023/09/25 11:05:55;;;;;;;3.00;1.98;;;;;;;18.69;86.62;102068.63;5048128;28;20033;-72
2023/09/25 11:08:21;;;;;;;3.55;2.20;;;;;;;18.92;85.48;102067.44;5049284;28;20119;-74
2023/09/25 11:10:47;;;;;;;2.38;1.70;;;;;;;18.70;87.50;102070.28;5045354;28;20035;-72
2023/09/25 11:13:12;;;;;;;4.30;2.00;;;;;;;18.80;87.96;102069.47;5047043;28;20100;-73
2023/09/25 11:15:39;;;;;;;4.10;1.92;;;;;;;18.86;85.52;102079.19;5042943;28;20045;-72